»·PEaware :: N610ER KFAT-KVGT

N610ER :: KFAT-KVGT

FLIGHT INFORMATION

Flight Status: Arrived
Operator: Privately registered:
United States
More flights under this callsign
Pilot: James B. (24167)
Aircraft: ECLIPSE 500
(EA50)
More flights by this aircraft type
Origin: KFAT Fresno Yosemite Intl
United States
Destination: KVGT North Las Vegas
United States
More flights between these airports :: More routes between these airports
Route: +YOSE3 NTELL Q162 ESSAA BTY FUZZY8
File this flight plan on PilotEdge
Remarks:
Altitude:
(Current/Filed)
33,000ft
Speed:
(Current/Filed)
280kts
Departed: 26-Aug-19 08:36 PM
Arrived: 26-Aug-19 09:45 PM
Distance/Time
Traveled:
221nm/1:08
Distance/Time
To Go:
Arrived

Flight Plot

Page will automatically refresh every two minutes.

Flight plan parsing failed; only flown route is shown


Map Options




Map Legend


Flown Route
Filed Route
Departure Airport
Arrival Airport
Navaid (VOR, NDB)
Fix

Horizontal Profiles

Position Reports

Time Latitude Longitude Heading Altitude Ground
Speed
26-Aug-19 20:01 36.778529 -119.730135 124 331ft 0kts
26-Aug-19 20:02 36.778529 -119.730135 124 331ft 0kts
26-Aug-19 20:03 36.778529 -119.730135 124 331ft 0kts
26-Aug-19 20:04 36.778529 -119.730135 124 331ft 0kts
26-Aug-19 20:05 36.778529 -119.730135 124 331ft 0kts
26-Aug-19 20:06 36.778529 -119.730135 124 331ft 0kts
26-Aug-19 20:07 36.778529 -119.730135 124 331ft 0kts
26-Aug-19 20:08 36.778529 -119.730135 124 331ft 0kts
26-Aug-19 20:09 36.778529 -119.730135 124 331ft 0kts
26-Aug-19 20:10 36.778529 -119.730135 124 331ft 0kts
26-Aug-19 20:11 36.778529 -119.730135 124 331ft 0kts
26-Aug-19 20:12 36.778529 -119.730135 124 331ft 0kts
26-Aug-19 20:13 36.778529 -119.730135 124 331ft 0kts
26-Aug-19 20:14 36.778529 -119.730135 124 331ft 0kts
26-Aug-19 20:15 36.778529 -119.730135 124 331ft 0kts
26-Aug-19 20:16 36.778529 -119.730135 124 331ft 0kts
26-Aug-19 20:17 36.778529 -119.730135 124 331ft 0kts
26-Aug-19 20:18 36.778529 -119.730135 124 331ft 0kts
26-Aug-19 20:19 36.778529 -119.730135 124 331ft 0kts
26-Aug-19 20:20 36.778529 -119.730135 124 331ft 0kts
26-Aug-19 20:21 36.778529 -119.730135 124 331ft 0kts
26-Aug-19 20:22 36.778529 -119.730135 124 331ft 0kts
26-Aug-19 20:23 36.778529 -119.730135 124 331ft 0kts
26-Aug-19 20:24 36.778529 -119.730135 124 331ft 0kts
26-Aug-19 20:25 36.778529 -119.730135 124 331ft 0kts
26-Aug-19 20:26 36.778529 -119.730135 124 331ft 0kts
26-Aug-19 20:27 36.778529 -119.730135 124 331ft 0kts
26-Aug-19 20:28 36.778529 -119.730135 124 331ft 0kts
26-Aug-19 20:29 36.778518 -119.730116 124 331ft 0kts
26-Aug-19 20:30 36.779489 -119.728697 115 333ft 6kts
26-Aug-19 20:31 36.777397 -119.725011 125 341ft 17kts
26-Aug-19 20:32 36.773913 -119.718915 126 340ft 25kts
26-Aug-19 20:33 36.770762 -119.713388 125 333ft 12kts
26-Aug-19 20:34 36.770518 -119.710586 32 340ft 3kts
26-Aug-19 20:35 36.781771 -119.730664 303 1067ft 140kts
26-Aug-19 20:36 36.808081 -119.771273 314 4190ft 156kts
26-Aug-19 20:37 36.838486 -119.810699 314 7090ft 164kts
26-Aug-19 20:38 36.870790 -119.852320 314 9718ft 174kts
26-Aug-19 20:39 36.911150 -119.864201 59 12116ft 175kts
26-Aug-19 20:40 36.927735 -119.808392 71 14479ft 176kts
26-Aug-19 20:41 36.945719 -119.750019 70 16493ft 188kts
26-Aug-19 20:42 36.965848 -119.688379 69 18430ft 196kts
26-Aug-19 20:43 36.986304 -119.624848 68 20306ft 199kts
26-Aug-19 20:44 37.007463 -119.560232 69 22016ft 204kts
26-Aug-19 20:45 37.028902 -119.494134 66 23600ft 208kts
26-Aug-19 20:46 37.051422 -119.427209 69 25081ft 212kts
26-Aug-19 20:47 37.073476 -119.357488 69 26398ft 220kts
26-Aug-19 20:48 37.095520 -119.288572 70 27795ft 218kts
26-Aug-19 20:49 37.118693 -119.217753 68 28929ft 224kts
26-Aug-19 20:50 37.141492 -119.144977 71 30074ft 226kts
26-Aug-19 20:51 37.164462 -119.070673 70 31091ft 230kts
26-Aug-19 20:52 37.188793 -118.995667 72 32042ft 234kts
26-Aug-19 20:53 37.213027 -118.919125 70 32961ft 238kts
26-Aug-19 20:54 37.237432 -118.842338 71 33892ft 236kts
26-Aug-19 20:55 37.262265 -118.764269 69 34663ft 240kts
26-Aug-19 20:56 37.281510 -118.682786 87 35313ft 244kts
26-Aug-19 20:57 37.288043 -118.597743 86 35986ft 247kts
26-Aug-19 20:58 37.295784 -118.511600 85 36565ft 248kts
26-Aug-19 20:59 37.303847 -118.425048 83 37014ft 253kts
26-Aug-19 21:00 37.312253 -118.334563 86 37032ft 278kts
26-Aug-19 21:01 37.321036 -118.233664 85 37024ft 302kts
26-Aug-19 21:02 37.330448 -118.126859 85 37034ft 311kts
26-Aug-19 21:03 37.339943 -118.018565 85 37035ft 313kts
26-Aug-19 21:04 37.349389 -117.909576 85 37041ft 314kts
26-Aug-19 21:05 37.342747 -117.801598 98 37040ft 310kts
26-Aug-19 21:06 37.333093 -117.693821 98 37041ft 309kts
26-Aug-19 21:07 37.323447 -117.586366 97 37048ft 310kts
26-Aug-19 21:08 37.313721 -117.479282 97 37048ft 310kts
26-Aug-19 21:09 37.303826 -117.371487 97 37047ft 310kts
26-Aug-19 21:10 37.276288 -117.274174 130 37169ft 298kts
26-Aug-19 21:11 37.225717 -117.190959 131 37170ft 303kts
26-Aug-19 21:12 37.174325 -117.106708 131 37173ft 307kts
26-Aug-19 21:13 37.121963 -117.021052 131 37119ft 313kts
26-Aug-19 21:14 37.068191 -116.934761 141 36980ft 316kts
26-Aug-19 21:15 36.995571 -116.874692 150 36989ft 313kts
26-Aug-19 21:16 36.922700 -116.815588 150 36979ft 314kts
26-Aug-19 21:17 36.845330 -116.753663 150 35730ft 353kts
26-Aug-19 21:19 36.761324 -116.677936 141 33686ft 396kts
26-Aug-19 21:20 36.682128 -116.577283 133 31368ft 417kts
26-Aug-19 21:21 36.604443 -116.469331 131 28879ft 420kts
26-Aug-19 21:22 36.529628 -116.363051 131 26376ft 399kts
26-Aug-19 21:23 36.458122 -116.261470 131 24042ft 386kts
26-Aug-19 21:24 36.388192 -116.163298 131 21746ft 376kts
26-Aug-19 21:25 36.319542 -116.067168 131 19441ft 367kts
26-Aug-19 21:26 36.254470 -115.975950 131 17358ft 333kts
26-Aug-19 21:27 36.197257 -115.888674 118 16088ft 322kts
26-Aug-19 21:28 36.150049 -115.795088 121 16081ft 319kts
26-Aug-19 21:29 36.104211 -115.702075 121 15468ft 314kts
26-Aug-19 21:30 36.057615 -115.611040 121 13868ft 311kts
26-Aug-19 21:31 36.012256 -115.521219 119 12999ft 303kts
26-Aug-19 21:32 36.037557 -115.431188 54 12999ft 305kts
26-Aug-19 21:33 36.105106 -115.383772 351 12042ft 306kts
26-Aug-19 21:34 36.189218 -115.398660 352 10533ft 303kts
26-Aug-19 21:35 36.271845 -115.412022 352 9793ft 299kts
26-Aug-19 21:36 36.342582 -115.414926 38 8141ft 223kts
26-Aug-19 21:37 36.354274 -115.346503 79 7197ft 192kts
26-Aug-19 21:38 36.365328 -115.290932 76 6157ft 145kts
26-Aug-19 21:39 36.339977 -115.269469 172 5130ft 131kts
26-Aug-19 21:39 36.310328 -115.262187 167 4292ft 128kts
26-Aug-19 21:41 36.276712 -115.246964 153 3612ft 93kts
26-Aug-19 21:41 36.256535 -115.237479 160 3292ft 93kts
26-Aug-19 21:43 36.229414 -115.221182 145 2697ft 90kts
26-Aug-19 21:43 36.214636 -115.202605 137 2223ft 87kts
26-Aug-19 21:44 36.205526 -115.191113 142 2169ft 8kts
26-Aug-19 21:46 36.204804 -115.191360 137 2169ft 3kts
26-Aug-19 21:46 36.203756 -115.192224 226 2171ft 5kts
26-Aug-19 21:47 36.203266 -115.194116 273 2174ft 8kts
26-Aug-19 21:48 36.203261 -115.194912 270 2177ft 0kts
26-Aug-19 21:49 36.203261 -115.194912 270 2177ft 0kts
26-Aug-19 21:50 36.203261 -115.194912 270 2177ft 0kts
26-Aug-19 21:51 36.203261 -115.194912 270 2177ft 0kts
26-Aug-19 21:52 36.203261 -115.194912 270 2177ft 0kts
26-Aug-19 21:53 36.203261 -115.194912 270 2177ft 0kts
26-Aug-19 21:54 36.203261 -115.194912 270 2177ft 0kts
26-Aug-19 21:55 36.203261 -115.194912 270 2177ft 0kts
26-Aug-19 21:56 36.203261 -115.194912 270 2177ft 0kts
26-Aug-19 21:57 36.203261 -115.194912 270 2177ft 0kts
26-Aug-19 21:58 36.203261 -115.194912 270 2177ft 0kts

Navigation Log

Ident Type
Flight plan parsing failed, navigation log unavailable